sensor_id;sensor_type;location;lat;lon;timestamp;P1;durP1;ratioP1;P2;durP2;ratioP2
28547;SDS011;15750;49.600;8.746;2022-09-03T00:02:57;1.48;;;1.38;;
28547;SDS011;15750;49.600;8.746;2022-09-03T00:05:49;1.55;;;1.45;;
28547;SDS011;15750;49.600;8.746;2022-09-03T00:08:54;3.97;;;1.23;;
28547;SDS011;15750;49.600;8.746;2022-09-03T00:11:51;1.40;;;1.30;;
28547;SDS011;15750;49.600;8.746;2022-09-03T00:14:47;1.83;;;1.30;;
28547;SDS011;15750;49.600;8.746;2022-09-03T00:17:39;1.98;;;1.30;;
28547;SDS011;15750;49.600;8.746;2022-09-03T00:20:32;3.78;;;1.48;;
28547;SDS011;15750;49.600;8.746;2022-09-03T00:23:26;4.13;;;1.40;;
28547;SDS011;15750;49.600;8.746;2022-09-03T00:26:18;1.10;;;1.10;;
28547;SDS011;15750;49.600;8.746;2022-09-03T00:29:14;1.95;;;1.63;;
28547;SDS011;15750;49.600;8.746;2022-09-03T00:32:06;1.65;;;1.27;;
28547;SDS011;15750;49.600;8.746;2022-09-03T00:35:01;1.85;;;1.38;;
28547;SDS011;15750;49.600;8.746;2022-09-03T00:37:52;1.30;;;1.20;;
28547;SDS011;15750;49.600;8.746;2022-09-03T00:40:44;1.30;;;1.20;;
28547;SDS011;15750;49.600;8.746;2022-09-03T00:43:56;1.33;;;1.23;;
28547;SDS011;15750;49.600;8.746;2022-09-03T00:47:04;4.43;;;1.25;;
28547;SDS011;15750;49.600;8.746;2022-09-03T00:50:03;1.23;;;1.20;;
28547;SDS011;15750;49.600;8.746;2022-09-03T00:52:59;1.30;;;1.20;;
28547;SDS011;15750;49.600;8.746;2022-09-03T00:55:56;1.30;;;1.20;;
28547;SDS011;15750;49.600;8.746;2022-09-03T01:02:10;1.45;;;1.30;;
28547;SDS011;15750;49.600;8.746;2022-09-03T01:05:07;2.65;;;1.35;;
28547;SDS011;15750;49.600;8.746;2022-09-03T01:08:09;1.38;;;1.27;;
28547;SDS011;15750;49.600;8.746;2022-09-03T01:11:18;1.40;;;1.30;;
28547;SDS011;15750;49.600;8.746;2022-09-03T01:14:18;1.40;;;1.30;;
28547;SDS011;15750;49.600;8.746;2022-09-03T01:17:21;3.00;;;1.50;;
28547;SDS011;15750;49.600;8.746;2022-09-03T01:27:20;1.33;;;1.23;;
28547;SDS011;15750;49.600;8.746;2022-09-03T01:30:22;1.20;;;1.10;;
28547;SDS011;15750;49.600;8.746;2022-09-03T01:33:10;1.30;;;1.20;;
28547;SDS011;15750;49.600;8.746;2022-09-03T01:36:08;1.63;;;1.27;;
28547;SDS011;15750;49.600;8.746;2022-09-03T01:39:02;1.48;;;1.38;;
28547;SDS011;15750;49.600;8.746;2022-09-03T01:41:54;2.65;;;1.40;;
28547;SDS011;15750;49.600;8.746;2022-09-03T01:45:12;1.40;;;1.30;;
28547;SDS011;15750;49.600;8.746;2022-09-03T01:48:21;1.38;;;1.20;;
28547;SDS011;15750;49.600;8.746;2022-09-03T01:51:26;1.40;;;1.30;;
28547;SDS011;15750;49.600;8.746;2022-09-03T01:54:23;2.28;;;1.20;;
28547;SDS011;15750;49.600;8.746;2022-09-03T01:57:38;1.60;;;1.45;;
28547;SDS011;15750;49.600;8.746;2022-09-03T02:00:33;1.30;;;1.20;;
28547;SDS011;15750;49.600;8.746;2022-09-03T02:03:24;1.65;;;1.20;;
28547;SDS011;15750;49.600;8.746;2022-09-03T02:06:24;1.27;;;1.17;;
28547;SDS011;15750;49.600;8.746;2022-09-03T02:09:13;1.10;;;1.00;;
28547;SDS011;15750;49.600;8.746;2022-09-03T02:12:04;1.83;;;1.20;;
28547;SDS011;15750;49.600;8.746;2022-09-03T02:14:58;1.50;;;1.40;;
28547;SDS011;15750;49.600;8.746;2022-09-03T02:17:50;1.33;;;1.23;;
28547;SDS011;15750;49.600;8.746;2022-09-03T02:20:40;2.08;;;1.50;;
28547;SDS011;15750;49.600;8.746;2022-09-03T02:23:28;1.70;;;1.40;;
28547;SDS011;15750;49.600;8.746;2022-09-03T02:26:17;1.38;;;1.27;;
28547;SDS011;15750;49.600;8.746;2022-09-03T02:29:08;1.58;;;1.40;;
28547;SDS011;15750;49.600;8.746;2022-09-03T02:31:56;3.78;;;1.20;;
28547;SDS011;15750;49.600;8.746;2022-09-03T02:34:45;1.63;;;1.42;;
28547;SDS011;15750;49.600;8.746;2022-09-03T02:37:33;1.33;;;1.23;;
28547;SDS011;15750;49.600;8.746;2022-09-03T02:40:20;1.50;;;1.40;;
28547;SDS011;15750;49.600;8.746;2022-09-03T02:43:08;2.05;;;1.30;;
28547;SDS011;15750;49.600;8.746;2022-09-03T02:46:03;1.30;;;1.20;;
28547;SDS011;15750;49.600;8.746;2022-09-03T02:48:54;3.58;;;1.30;;
28547;SDS011;15750;49.600;8.746;2022-09-03T02:51:43;1.40;;;1.30;;
28547;SDS011;15750;49.600;8.746;2022-09-03T02:54:30;1.60;;;1.40;;
28547;SDS011;15750;49.600;8.746;2022-09-03T02:57:20;1.42;;;1.33;;
28547;SDS011;15750;49.600;8.746;2022-09-03T03:00:12;1.98;;;1.40;;
28547;SDS011;15750;49.600;8.746;2022-09-03T03:03:00;2.20;;;1.38;;
28547;SDS011;15750;49.600;8.746;2022-09-03T03:05:48;1.55;;;1.45;;
28547;SDS011;15750;49.600;8.746;2022-09-03T03:08:41;1.73;;;1.55;;
28547;SDS011;15750;49.600;8.746;2022-09-03T03:11:28;1.63;;;1.40;;
28547;SDS011;15750;49.600;8.746;2022-09-03T03:14:15;1.20;;;1.15;;
28547;SDS011;15750;49.600;8.746;2022-09-03T03:17:03;3.08;;;1.40;;
28547;SDS011;15750;49.600;8.746;2022-09-03T03:19:50;1.52;;;1.42;;
28547;SDS011;15750;49.600;8.746;2022-09-03T03:22:37;1.40;;;1.30;;
28547;SDS011;15750;49.600;8.746;2022-09-03T03:25:26;1.50;;;1.40;;
28547;SDS011;15750;49.600;8.746;2022-09-03T03:28:14;1.40;;;1.30;;
28547;SDS011;15750;49.600;8.746;2022-09-03T03:31:04;1.40;;;1.30;;
28547;SDS011;15750;49.600;8.746;2022-09-03T03:33:53;2.08;;;1.30;;
28547;SDS011;15750;49.600;8.746;2022-09-03T03:36:42;1.70;;;1.60;;
28547;SDS011;15750;49.600;8.746;2022-09-03T03:39:30;3.13;;;1.48;;
28547;SDS011;15750;49.600;8.746;2022-09-03T03:42:19;1.83;;;1.50;;
28547;SDS011;15750;49.600;8.746;2022-09-03T03:45:06;1.70;;;1.42;;
28547;SDS011;15750;49.600;8.746;2022-09-03T03:47:56;1.73;;;1.42;;
28547;SDS011;15750;49.600;8.746;2022-09-03T03:50:44;1.50;;;1.40;;
28547;SDS011;15750;49.600;8.746;2022-09-03T03:53:31;1.52;;;1.42;;
28547;SDS011;15750;49.600;8.746;2022-09-03T03:56:19;2.00;;;1.50;;
28547;SDS011;15750;49.600;8.746;2022-09-03T03:59:08;1.98;;;1.50;;
28547;SDS011;15750;49.600;8.746;2022-09-03T04:01:57;2.33;;;1.27;;
28547;SDS011;15750;49.600;8.746;2022-09-03T04:04:45;1.52;;;1.42;;
28547;SDS011;15750;49.600;8.746;2022-09-03T04:07:32;1.50;;;1.40;;
28547;SDS011;15750;49.600;8.746;2022-09-03T04:10:19;2.65;;;1.50;;
28547;SDS011;15750;49.600;8.746;2022-09-03T04:13:07;1.67;;;1.30;;
28547;SDS011;15750;49.600;8.746;2022-09-03T04:16:00;1.30;;;1.20;;
28547;SDS011;15750;49.600;8.746;2022-09-03T04:18:48;1.65;;;1.55;;
28547;SDS011;15750;49.600;8.746;2022-09-03T04:21:37;1.45;;;1.35;;
28547;SDS011;15750;49.600;8.746;2022-09-03T04:24:25;1.83;;;1.50;;
28547;SDS011;15750;49.600;8.746;2022-09-03T04:27:12;2.30;;;1.33;;
28547;SDS011;15750;49.600;8.746;2022-09-03T04:29:59;1.52;;;1.42;;
28547;SDS011;15750;49.600;8.746;2022-09-03T04:32:49;1.45;;;1.35;;
28547;SDS011;15750;49.600;8.746;2022-09-03T04:35:40;1.48;;;1.38;;
28547;SDS011;15750;49.600;8.746;2022-09-03T04:38:27;2.35;;;1.50;;
28547;SDS011;15750;49.600;8.746;2022-09-03T04:41:17;1.33;;;1.23;;
28547;SDS011;15750;49.600;8.746;2022-09-03T04:44:08;1.58;;;1.42;;
28547;SDS011;15750;49.600;8.746;2022-09-03T04:46:56;1.55;;;1.45;;
28547;SDS011;15750;49.600;8.746;2022-09-03T04:49:44;1.27;;;1.17;;
28547;SDS011;15750;49.600;8.746;2022-09-03T04:52:32;2.70;;;1.35;;
28547;SDS011;15750;49.600;8.746;2022-09-03T04:55:19;2.90;;;1.70;;
28547;SDS011;15750;49.600;8.746;2022-09-03T04:58:06;1.60;;;1.50;;
28547;SDS011;15750;49.600;8.746;2022-09-03T05:00:53;1.45;;;1.35;;
28547;SDS011;15750;49.600;8.746;2022-09-03T05:03:41;1.13;;;1.13;;
28547;SDS011;15750;49.600;8.746;2022-09-03T05:06:31;1.63;;;1.52;;
28547;SDS011;15750;49.600;8.746;2022-09-03T05:09:19;1.52;;;1.30;;
28547;SDS011;15750;49.600;8.746;2022-09-03T05:12:06;3.10;;;1.50;;
28547;SDS011;15750;49.600;8.746;2022-09-03T05:14:55;3.17;;;1.55;;
28547;SDS011;15750;49.600;8.746;2022-09-03T05:17:44;1.40;;;1.30;;
28547;SDS011;15750;49.600;8.746;2022-09-03T05:20:32;1.60;;;1.40;;
28547;SDS011;15750;49.600;8.746;2022-09-03T05:23:20;1.60;;;1.30;;
28547;SDS011;15750;49.600;8.746;2022-09-03T05:26:09;1.60;;;1.42;;
28547;SDS011;15750;49.600;8.746;2022-09-03T05:28:58;1.90;;;1.48;;
28547;SDS011;15750;49.600;8.746;2022-09-03T05:31:48;1.63;;;1.48;;
28547;SDS011;15750;49.600;8.746;2022-09-03T05:34:35;2.63;;;1.42;;
28547;SDS011;15750;49.600;8.746;2022-09-03T05:37:22;1.92;;;1.50;;
28547;SDS011;15750;49.600;8.746;2022-09-03T05:40:12;1.77;;;1.50;;
28547;SDS011;15750;49.600;8.746;2022-09-03T05:42:59;2.00;;;1.77;;
28547;SDS011;15750;49.600;8.746;2022-09-03T05:45:55;2.20;;;1.70;;
28547;SDS011;15750;49.600;8.746;2022-09-03T05:48:45;1.58;;;1.48;;
28547;SDS011;15750;49.600;8.746;2022-09-03T05:51:33;1.85;;;1.75;;
28547;SDS011;15750;49.600;8.746;2022-09-03T05:54:23;1.60;;;1.50;;
28547;SDS011;15750;49.600;8.746;2022-09-03T05:57:12;2.40;;;1.60;;
28547;SDS011;15750;49.600;8.746;2022-09-03T05:59:59;2.47;;;1.70;;
28547;SDS011;15750;49.600;8.746;2022-09-03T06:02:56;1.98;;;1.80;;
28547;SDS011;15750;49.600;8.746;2022-09-03T06:05:48;2.25;;;1.30;;
28547;SDS011;15750;49.600;8.746;2022-09-03T06:08:36;1.80;;;1.67;;
28547;SDS011;15750;49.600;8.746;2022-09-03T06:11:24;1.63;;;1.52;;
28547;SDS011;15750;49.600;8.746;2022-09-03T06:14:15;1.70;;;1.60;;
28547;SDS011;15750;49.600;8.746;2022-09-03T06:17:03;1.67;;;1.58;;
28547;SDS011;15750;49.600;8.746;2022-09-03T06:19:50;2.22;;;1.67;;
28547;SDS011;15750;49.600;8.746;2022-09-03T06:22:37;1.70;;;1.60;;
28547;SDS011;15750;49.600;8.746;2022-09-03T06:25:25;1.50;;;1.40;;
28547;SDS011;15750;49.600;8.746;2022-09-03T06:28:12;2.33;;;1.75;;
28547;SDS011;15750;49.600;8.746;2022-09-03T06:31:00;2.03;;;1.70;;
28547;SDS011;15750;49.600;8.746;2022-09-03T06:33:48;1.98;;;1.70;;
28547;SDS011;15750;49.600;8.746;2022-09-03T06:36:37;1.90;;;1.70;;
28547;SDS011;15750;49.600;8.746;2022-09-03T06:39:25;1.70;;;1.60;;
28547;SDS011;15750;49.600;8.746;2022-09-03T06:42:12;2.30;;;1.80;;
28547;SDS011;15750;49.600;8.746;2022-09-03T06:45:00;1.90;;;1.50;;
28547;SDS011;15750;49.600;8.746;2022-09-03T06:47:48;2.35;;;1.60;;
28547;SDS011;15750;49.600;8.746;2022-09-03T06:50:35;1.60;;;1.50;;
28547;SDS011;15750;49.600;8.746;2022-09-03T06:53:23;3.15;;;1.77;;
28547;SDS011;15750;49.600;8.746;2022-09-03T06:56:16;1.60;;;1.50;;
28547;SDS011;15750;49.600;8.746;2022-09-03T06:59:11;1.55;;;1.45;;
28547;SDS011;15750;49.600;8.746;2022-09-03T07:02:00;2.00;;;1.80;;
28547;SDS011;15750;49.600;8.746;2022-09-03T07:04:49;2.17;;;1.67;;
28547;SDS011;15750;49.600;8.746;2022-09-03T07:07:38;1.90;;;1.80;;
28547;SDS011;15750;49.600;8.746;2022-09-03T07:10:25;1.80;;;1.70;;
28547;SDS011;15750;49.600;8.746;2022-09-03T07:13:13;1.90;;;1.70;;
28547;SDS011;15750;49.600;8.746;2022-09-03T07:16:01;2.28;;;1.80;;
28547;SDS011;15750;49.600;8.746;2022-09-03T07:18:50;1.80;;;1.70;;
28547;SDS011;15750;49.600;8.746;2022-09-03T07:21:39;1.88;;;1.67;;
28547;SDS011;15750;49.600;8.746;2022-09-03T07:24:33;1.80;;;1.70;;
28547;SDS011;15750;49.600;8.746;2022-09-03T07:27:22;1.90;;;1.80;;
28547;SDS011;15750;49.600;8.746;2022-09-03T07:30:10;1.98;;;1.88;;
28547;SDS011;15750;49.600;8.746;2022-09-03T07:32:58;5.15;;;1.70;;
28547;SDS011;15750;49.600;8.746;2022-09-03T07:35:48;2.35;;;1.80;;
28547;SDS011;15750;49.600;8.746;2022-09-03T07:38:37;1.70;;;1.60;;
28547;SDS011;15750;49.600;8.746;2022-09-03T07:41:25;4.13;;;2.00;;
28547;SDS011;15750;49.600;8.746;2022-09-03T07:44:17;1.98;;;1.85;;
28547;SDS011;15750;49.600;8.746;2022-09-03T07:47:05;1.98;;;1.88;;
28547;SDS011;15750;49.600;8.746;2022-09-03T07:49:52;2.28;;;2.05;;
28547;SDS011;15750;49.600;8.746;2022-09-03T07:52:39;2.60;;;2.03;;
28547;SDS011;15750;49.600;8.746;2022-09-03T07:55:27;3.30;;;2.30;;
28547;SDS011;15750;49.600;8.746;2022-09-03T07:58:14;2.28;;;2.00;;
28547;SDS011;15750;49.600;8.746;2022-09-03T08:01:03;2.25;;;2.05;;
28547;SDS011;15750;49.600;8.746;2022-09-03T08:03:55;3.53;;;2.17;;
28547;SDS011;15750;49.600;8.746;2022-09-03T08:06:42;2.38;;;2.17;;
28547;SDS011;15750;49.600;8.746;2022-09-03T08:09:30;3.10;;;2.20;;
28547;SDS011;15750;49.600;8.746;2022-09-03T08:12:18;2.30;;;2.10;;
28547;SDS011;15750;49.600;8.746;2022-09-03T08:15:06;2.67;;;2.03;;
28547;SDS011;15750;49.600;8.746;2022-09-03T08:17:55;2.17;;;1.98;;
28547;SDS011;15750;49.600;8.746;2022-09-03T08:20:50;5.40;;;2.10;;
28547;SDS011;15750;49.600;8.746;2022-09-03T08:23:37;2.20;;;2.00;;
28547;SDS011;15750;49.600;8.746;2022-09-03T08:26:26;3.15;;;2.10;;
28547;SDS011;15750;49.600;8.746;2022-09-03T08:29:16;2.33;;;1.88;;
28547;SDS011;15750;49.600;8.746;2022-09-03T08:32:04;2.25;;;1.95;;
28547;SDS011;15750;49.600;8.746;2022-09-03T08:34:51;2.60;;;2.15;;
28547;SDS011;15750;49.600;8.746;2022-09-03T08:37:39;2.47;;;2.28;;
28547;SDS011;15750;49.600;8.746;2022-09-03T08:40:26;3.65;;;2.58;;
28547;SDS011;15750;49.600;8.746;2022-09-03T08:43:15;3.03;;;1.98;;
28547;SDS011;15750;49.600;8.746;2022-09-03T08:46:05;3.05;;;2.17;;
28547;SDS011;15750;49.600;8.746;2022-09-03T08:48:54;2.15;;;2.00;;
28547;SDS011;15750;49.600;8.746;2022-09-03T08:51:44;2.20;;;1.77;;
28547;SDS011;15750;49.600;8.746;2022-09-03T08:54:33;2.25;;;2.15;;
28547;SDS011;15750;49.600;8.746;2022-09-03T08:57:22;3.10;;;2.42;;
28547;SDS011;15750;49.600;8.746;2022-09-03T09:00:11;2.50;;;2.30;;
28547;SDS011;15750;49.600;8.746;2022-09-03T09:03:05;2.60;;;2.33;;
28547;SDS011;15750;49.600;8.746;2022-09-03T09:06:22;3.38;;;2.58;;
28547;SDS011;15750;49.600;8.746;2022-09-03T09:09:21;2.80;;;2.17;;
28547;SDS011;15750;49.600;8.746;2022-09-03T09:12:19;2.22;;;2.03;;
28547;SDS011;15750;49.600;8.746;2022-09-03T09:15:29;2.15;;;1.92;;
28547;SDS011;15750;49.600;8.746;2022-09-03T09:18:29;2.50;;;2.30;;
28547;SDS011;15750;49.600;8.746;2022-09-03T09:21:48;2.22;;;2.13;;
28547;SDS011;15750;49.600;8.746;2022-09-03T09:24:40;2.30;;;2.10;;
28547;SDS011;15750;49.600;8.746;2022-09-03T09:27:30;3.50;;;2.30;;
28547;SDS011;15750;49.600;8.746;2022-09-03T09:30:18;4.57;;;1.92;;
28547;SDS011;15750;49.600;8.746;2022-09-03T09:33:06;2.55;;;2.35;;
28547;SDS011;15750;49.600;8.746;2022-09-03T09:35:54;2.60;;;2.40;;
28547;SDS011;15750;49.600;8.746;2022-09-03T09:38:42;2.70;;;2.50;;
28547;SDS011;15750;49.600;8.746;2022-09-03T09:41:30;3.17;;;2.50;;
28547;SDS011;15750;49.600;8.746;2022-09-03T09:44:18;2.88;;;2.60;;
28547;SDS011;15750;49.600;8.746;2022-09-03T09:47:07;2.85;;;2.65;;
28547;SDS011;15750;49.600;8.746;2022-09-03T09:49:59;2.85;;;2.47;;
28547;SDS011;15750;49.600;8.746;2022-09-03T09:52:59;3.05;;;2.80;;
28547;SDS011;15750;49.600;8.746;2022-09-03T09:55:51;2.83;;;2.63;;
28547;SDS011;15750;49.600;8.746;2022-09-03T09:58:40;2.60;;;2.40;;
28547;SDS011;15750;49.600;8.746;2022-09-03T10:01:28;2.60;;;2.33;;
28547;SDS011;15750;49.600;8.746;2022-09-03T10:04:20;2.78;;;2.55;;
28547;SDS011;15750;49.600;8.746;2022-09-03T10:07:20;2.67;;;2.47;;
28547;SDS011;15750;49.600;8.746;2022-09-03T10:10:18;3.17;;;2.88;;
28547;SDS011;15750;49.600;8.746;2022-09-03T10:13:08;2.70;;;2.50;;
28547;SDS011;15750;49.600;8.746;2022-09-03T10:16:00;2.90;;;2.60;;
28547;SDS011;15750;49.600;8.746;2022-09-03T10:18:57;3.38;;;3.10;;
28547;SDS011;15750;49.600;8.746;2022-09-03T10:21:53;3.78;;;3.38;;
28547;SDS011;15750;49.600;8.746;2022-09-03T10:24:50;3.60;;;2.70;;
28547;SDS011;15750;49.600;8.746;2022-09-03T10:27:45;2.90;;;2.70;;
28547;SDS011;15750;49.600;8.746;2022-09-03T10:30:33;2.80;;;2.60;;
28547;SDS011;15750;49.600;8.746;2022-09-03T10:33:53;3.75;;;2.88;;
28547;SDS011;15750;49.600;8.746;2022-09-03T10:36:47;3.70;;;2.50;;
28547;SDS011;15750;49.600;8.746;2022-09-03T10:43:11;3.00;;;2.80;;
28547;SDS011;15750;49.600;8.746;2022-09-03T10:46:42;2.83;;;2.63;;
28547;SDS011;15750;49.600;8.746;2022-09-03T10:49:46;3.35;;;2.85;;
28547;SDS011;15750;49.600;8.746;2022-09-03T10:52:43;2.75;;;2.55;;
28547;SDS011;15750;49.600;8.746;2022-09-03T10:55:54;2.92;;;2.72;;
28547;SDS011;15750;49.600;8.746;2022-09-03T10:58:50;2.90;;;2.70;;
28547;SDS011;15750;49.600;8.746;2022-09-03T11:01:50;3.00;;;2.70;;
28547;SDS011;15750;49.600;8.746;2022-09-03T11:04:46;2.58;;;2.38;;
28547;SDS011;15750;49.600;8.746;2022-09-03T11:07:42;2.78;;;2.58;;
28547;SDS011;15750;49.600;8.746;2022-09-03T11:10:37;2.47;;;2.28;;
28547;SDS011;15750;49.600;8.746;2022-09-03T11:13:30;3.05;;;2.70;;
28547;SDS011;15750;49.600;8.746;2022-09-03T11:16:23;4.93;;;2.67;;
28547;SDS011;15750;49.600;8.746;2022-09-03T11:19:15;2.92;;;2.45;;
28547;SDS011;15750;49.600;8.746;2022-09-03T11:22:07;2.35;;;2.15;;
28547;SDS011;15750;49.600;8.746;2022-09-03T11:25:00;2.35;;;2.15;;
28547;SDS011;15750;49.600;8.746;2022-09-03T11:27:52;2.45;;;2.28;;
28547;SDS011;15750;49.600;8.746;2022-09-03T11:30:58;2.58;;;2.38;;
28547;SDS011;15750;49.600;8.746;2022-09-03T11:34:11;3.15;;;2.50;;
28547;SDS011;15750;49.600;8.746;2022-09-03T11:37:16;2.90;;;2.70;;
28547;SDS011;15750;49.600;8.746;2022-09-03T11:40:10;2.40;;;2.20;;
28547;SDS011;15750;49.600;8.746;2022-09-03T11:43:06;2.60;;;2.47;;
28547;SDS011;15750;49.600;8.746;2022-09-03T11:46:04;2.13;;;1.92;;
28547;SDS011;15750;49.600;8.746;2022-09-03T11:49:09;2.22;;;2.03;;
28547;SDS011;15750;49.600;8.746;2022-09-03T11:51:59;1.95;;;1.85;;
28547;SDS011;15750;49.600;8.746;2022-09-03T11:54:52;2.00;;;1.90;;
28547;SDS011;15750;49.600;8.746;2022-09-03T11:57:40;1.88;;;1.77;;
28547;SDS011;15750;49.600;8.746;2022-09-03T12:00:28;1.75;;;1.63;;
28547;SDS011;15750;49.600;8.746;2022-09-03T12:03:15;1.75;;;1.65;;
28547;SDS011;15750;49.600;8.746;2022-09-03T12:06:18;3.83;;;1.73;;
28547;SDS011;15750;49.600;8.746;2022-09-03T12:12:51;1.65;;;1.55;;
28547;SDS011;15750;49.600;8.746;2022-09-03T12:15:57;1.60;;;1.50;;
28547;SDS011;15750;49.600;8.746;2022-09-03T12:19:20;1.35;;;1.25;;
28547;SDS011;15750;49.600;8.746;2022-09-03T12:22:20;1.50;;;1.40;;
28547;SDS011;15750;49.600;8.746;2022-09-03T12:25:10;1.70;;;1.60;;
28547;SDS011;15750;49.600;8.746;2022-09-03T12:28:00;1.75;;;1.65;;
28547;SDS011;15750;49.600;8.746;2022-09-03T12:30:49;2.13;;;1.70;;
28547;SDS011;15750;49.600;8.746;2022-09-03T12:33:39;1.70;;;1.60;;
28547;SDS011;15750;49.600;8.746;2022-09-03T12:36:35;1.67;;;1.58;;
28547;SDS011;15750;49.600;8.746;2022-09-03T12:39:25;1.77;;;1.67;;
28547;SDS011;15750;49.600;8.746;2022-09-03T12:42:35;1.77;;;1.67;;
28547;SDS011;15750;49.600;8.746;2022-09-03T12:45:24;1.92;;;1.83;;
28547;SDS011;15750;49.600;8.746;2022-09-03T12:48:33;2.40;;;1.85;;
28547;SDS011;15750;49.600;8.746;2022-09-03T12:51:23;1.80;;;1.70;;
28547;SDS011;15750;49.600;8.746;2022-09-03T12:54:32;1.60;;;1.50;;
28547;SDS011;15750;49.600;8.746;2022-09-03T12:57:24;4.85;;;1.83;;
28547;SDS011;15750;49.600;8.746;2022-09-03T13:00:17;1.63;;;1.52;;
28547;SDS011;15750;49.600;8.746;2022-09-03T13:03:14;1.60;;;1.50;;
28547;SDS011;15750;49.600;8.746;2022-09-03T13:06:07;1.40;;;1.30;;
28547;SDS011;15750;49.600;8.746;2022-09-03T13:08:59;4.45;;;1.40;;
28547;SDS011;15750;49.600;8.746;2022-09-03T13:11:51;1.42;;;1.33;;
28547;SDS011;15750;49.600;8.746;2022-09-03T13:14:43;1.90;;;1.30;;
28547;SDS011;15750;49.600;8.746;2022-09-03T13:17:42;1.27;;;1.10;;
28547;SDS011;15750;49.600;8.746;2022-09-03T13:20:50;1.17;;;1.17;;
28547;SDS011;15750;49.600;8.746;2022-09-03T13:23:59;1.27;;;1.17;;
28547;SDS011;15750;49.600;8.746;2022-09-03T13:27:17;0.93;;;0.93;;
28547;SDS011;15750;49.600;8.746;2022-09-03T13:30:12;1.10;;;1.10;;
28547;SDS011;15750;49.600;8.746;2022-09-03T13:33:04;2.50;;;1.30;;
28547;SDS011;15750;49.600;8.746;2022-09-03T13:36:02;1.60;;;1.50;;
28547;SDS011;15750;49.600;8.746;2022-09-03T13:39:01;1.58;;;1.48;;
28547;SDS011;15750;49.600;8.746;2022-09-03T13:41:53;1.48;;;1.38;;
28547;SDS011;15750;49.600;8.746;2022-09-03T13:44:54;1.63;;;1.52;;
28547;SDS011;15750;49.600;8.746;2022-09-03T13:47:48;1.30;;;1.20;;
28547;SDS011;15750;49.600;8.746;2022-09-03T13:51:02;1.58;;;1.48;;
28547;SDS011;15750;49.600;8.746;2022-09-03T13:54:03;1.88;;;1.40;;
28547;SDS011;15750;49.600;8.746;2022-09-03T13:57:06;1.30;;;1.20;;
28547;SDS011;15750;49.600;8.746;2022-09-03T14:00:08;1.60;;;1.48;;
28547;SDS011;15750;49.600;8.746;2022-09-03T14:03:04;1.52;;;1.42;;
28547;SDS011;15750;49.600;8.746;2022-09-03T14:06:00;1.70;;;1.60;;
28547;SDS011;15750;49.600;8.746;2022-09-03T14:09:03;1.65;;;1.55;;
28547;SDS011;15750;49.600;8.746;2022-09-03T14:12:01;1.50;;;1.40;;
28547;SDS011;15750;49.600;8.746;2022-09-03T14:14:57;1.70;;;1.60;;
28547;SDS011;15750;49.600;8.746;2022-09-03T14:17:56;2.53;;;1.65;;
28547;SDS011;15750;49.600;8.746;2022-09-03T14:20:55;1.50;;;1.40;;
28547;SDS011;15750;49.600;8.746;2022-09-03T14:23:48;2.30;;;2.00;;
28547;SDS011;15750;49.600;8.746;2022-09-03T14:26:49;2.00;;;1.90;;
28547;SDS011;15750;49.600;8.746;2022-09-03T14:29:48;2.05;;;1.85;;
28547;SDS011;15750;49.600;8.746;2022-09-03T14:32:42;3.28;;;1.95;;
28547;SDS011;15750;49.600;8.746;2022-09-03T14:35:59;1.80;;;1.70;;
28547;SDS011;15750;49.600;8.746;2022-09-03T14:39:02;2.53;;;2.33;;
28547;SDS011;15750;49.600;8.746;2022-09-03T14:45:41;2.58;;;2.38;;
28547;SDS011;15750;49.600;8.746;2022-09-03T14:48:57;2.20;;;2.00;;
28547;SDS011;15750;49.600;8.746;2022-09-03T14:52:14;2.95;;;2.72;;
28547;SDS011;15750;49.600;8.746;2022-09-03T14:55:20;2.50;;;2.30;;
28547;SDS011;15750;49.600;8.746;2022-09-03T14:58:32;2.60;;;2.40;;
28547;SDS011;15750;49.600;8.746;2022-09-03T15:01:44;2.53;;;2.33;;
28547;SDS011;15750;49.600;8.746;2022-09-03T15:04:49;2.90;;;2.70;;
28547;SDS011;15750;49.600;8.746;2022-09-03T15:07:58;3.00;;;2.80;;
28547;SDS011;15750;49.600;8.746;2022-09-03T15:10:54;3.42;;;3.00;;
28547;SDS011;15750;49.600;8.746;2022-09-03T15:13:46;3.50;;;3.17;;
28547;SDS011;15750;49.600;8.746;2022-09-03T15:16:42;4.18;;;3.75;;
28547;SDS011;15750;49.600;8.746;2022-09-03T15:19:42;4.20;;;3.45;;
28547;SDS011;15750;49.600;8.746;2022-09-03T15:23:04;5.15;;;3.45;;
28547;SDS011;15750;49.600;8.746;2022-09-03T15:26:18;3.80;;;3.50;;
28547;SDS011;15750;49.600;8.746;2022-09-03T15:29:28;3.90;;;3.60;;
28547;SDS011;15750;49.600;8.746;2022-09-03T15:32:37;4.40;;;4.00;;
28547;SDS011;15750;49.600;8.746;2022-09-03T15:35:59;4.88;;;4.47;;
28547;SDS011;15750;49.600;8.746;2022-09-03T15:39:04;4.05;;;3.75;;
28547;SDS011;15750;49.600;8.746;2022-09-03T15:41:57;4.10;;;3.80;;
28547;SDS011;15750;49.600;8.746;2022-09-03T15:44:50;3.95;;;3.60;;
28547;SDS011;15750;49.600;8.746;2022-09-03T15:47:47;4.18;;;3.78;;
28547;SDS011;15750;49.600;8.746;2022-09-03T15:50:47;3.67;;;3.35;;
28547;SDS011;15750;49.600;8.746;2022-09-03T15:53:41;4.15;;;3.85;;
28547;SDS011;15750;49.600;8.746;2022-09-03T15:56:38;6.50;;;4.30;;
28547;SDS011;15750;49.600;8.746;2022-09-03T15:59:32;5.22;;;3.88;;
28547;SDS011;15750;49.600;8.746;2022-09-03T16:02:27;3.85;;;3.55;;
28547;SDS011;15750;49.600;8.746;2022-09-03T16:05:20;4.68;;;3.70;;
28547;SDS011;15750;49.600;8.746;2022-09-03T16:08:24;4.50;;;4.05;;
28547;SDS011;15750;49.600;8.746;2022-09-03T16:11:27;4.90;;;4.50;;
28547;SDS011;15750;49.600;8.746;2022-09-03T16:14:25;4.30;;;3.90;;
28547;SDS011;15750;49.600;8.746;2022-09-03T16:17:21;4.50;;;4.10;;
28547;SDS011;15750;49.600;8.746;2022-09-03T16:20:15;4.03;;;3.72;;
28547;SDS011;15750;49.600;8.746;2022-09-03T16:23:09;4.10;;;3.80;;
28547;SDS011;15750;49.600;8.746;2022-09-03T16:26:02;4.10;;;3.80;;
28547;SDS011;15750;49.600;8.746;2022-09-03T16:28:54;4.20;;;3.50;;
28547;SDS011;15750;49.600;8.746;2022-09-03T16:31:56;4.35;;;3.95;;
28547;SDS011;15750;49.600;8.746;2022-09-03T16:35:00;3.42;;;3.22;;
28547;SDS011;15750;49.600;8.746;2022-09-03T16:38:03;4.65;;;3.75;;
28547;SDS011;15750;49.600;8.746;2022-09-03T16:41:09;4.28;;;3.88;;
28547;SDS011;15750;49.600;8.746;2022-09-03T16:44:06;3.78;;;3.47;;
28547;SDS011;15750;49.600;8.746;2022-09-03T16:47:06;4.13;;;3.80;;
28547;SDS011;15750;49.600;8.746;2022-09-03T16:50:07;3.85;;;3.55;;
28547;SDS011;15750;49.600;8.746;2022-09-03T16:53:12;4.20;;;3.80;;
28547;SDS011;15750;49.600;8.746;2022-09-03T16:56:10;3.80;;;3.50;;
28547;SDS011;15750;49.600;8.746;2022-09-03T16:59:25;3.45;;;3.25;;
28547;SDS011;15750;49.600;8.746;2022-09-03T17:02:50;3.75;;;3.45;;
28547;SDS011;15750;49.600;8.746;2022-09-03T17:09:34;2.53;;;2.35;;
28547;SDS011;15750;49.600;8.746;2022-09-03T17:12:41;2.03;;;1.92;;
28547;SDS011;15750;49.600;8.746;2022-09-03T17:15:42;2.65;;;2.17;;
28547;SDS011;15750;49.600;8.746;2022-09-03T17:18:40;1.90;;;1.80;;
28547;SDS011;15750;49.600;8.746;2022-09-03T17:21:37;5.63;;;2.20;;
28547;SDS011;15750;49.600;8.746;2022-09-03T17:24:35;2.28;;;2.08;;
28547;SDS011;15750;49.600;8.746;2022-09-03T17:27:32;2.50;;;2.30;;
28547;SDS011;15750;49.600;8.746;2022-09-03T17:30:36;2.33;;;2.17;;
28547;SDS011;15750;49.600;8.746;2022-09-03T17:33:33;2.33;;;2.13;;
28547;SDS011;15750;49.600;8.746;2022-09-03T17:36:47;3.67;;;2.17;;
28547;SDS011;15750;49.600;8.746;2022-09-03T17:39:59;2.35;;;2.15;;
28547;SDS011;15750;49.600;8.746;2022-09-03T17:43:07;1.95;;;1.85;;
28547;SDS011;15750;49.600;8.746;2022-09-03T17:46:09;4.78;;;2.40;;
28547;SDS011;15750;49.600;8.746;2022-09-03T17:49:12;2.50;;;2.30;;
28547;SDS011;15750;49.600;8.746;2022-09-03T17:52:07;2.50;;;2.30;;
28547;SDS011;15750;49.600;8.746;2022-09-03T17:55:11;2.55;;;2.35;;
28547;SDS011;15750;49.600;8.746;2022-09-03T17:58:05;2.22;;;2.03;;
28547;SDS011;15750;49.600;8.746;2022-09-03T18:01:01;2.40;;;2.20;;